createdAt,value
2023-04-25T00:00:34.685Z,16.10
2023-04-25T00:01:24.722Z,16.12
2023-04-25T00:02:14.871Z,16.11
2023-04-25T00:03:04.926Z,16.13
2023-04-25T00:03:55.370Z,16.15
2023-04-25T00:04:45.639Z,16.14
2023-04-25T00:05:35.395Z,16.15
2023-04-25T00:06:25.353Z,16.15
2023-04-25T00:07:15.419Z,16.15
2023-04-25T00:08:05.434Z,16.15
2023-04-25T00:08:55.504Z,16.15
2023-04-25T00:09:45.572Z,16.16
2023-04-25T00:10:35.661Z,16.18
2023-04-25T00:11:25.722Z,16.17
2023-04-25T00:12:15.727Z,16.19
2023-04-25T00:13:05.792Z,16.21
2023-04-25T00:13:56.122Z,16.21
2023-04-25T00:14:46.171Z,16.22
2023-04-25T00:15:36.252Z,16.24
2023-04-25T00:16:26.318Z,16.26
2023-04-25T00:17:16.351Z,16.26
2023-04-25T00:18:06.470Z,16.25
2023-04-25T00:18:56.469Z,16.25
2023-04-25T00:19:46.703Z,16.25
2023-04-25T00:20:36.588Z,16.31
2023-04-25T00:21:26.693Z,16.31
2023-04-25T00:22:16.700Z,16.31
2023-04-25T00:23:06.969Z,16.30
2023-04-25T00:23:57.037Z,16.25
2023-04-25T00:24:47.092Z,16.24
2023-04-25T00:25:37.179Z,16.24
2023-04-25T00:26:27.231Z,16.29
2023-04-25T00:27:17.285Z,16.31
2023-04-25T00:28:07.367Z,16.28
2023-04-25T00:28:57.441Z,16.26
2023-04-25T00:29:47.467Z,16.28
2023-04-25T00:30:37.540Z,16.27
2023-04-25T00:31:27.640Z,16.29
2023-04-25T00:32:17.864Z,16.30
2023-04-25T00:33:08.007Z,16.30
2023-04-25T00:33:57.934Z,16.34
2023-04-25T00:34:47.973Z,16.33
2023-04-25T00:35:38.083Z,16.31
2023-04-25T00:36:28.105Z,16.37
2023-04-25T00:37:18.179Z,16.41
2023-04-25T00:38:08.227Z,16.38
2023-04-25T00:38:58.258Z,16.38
2023-04-25T00:39:48.325Z,16.35
2023-04-25T00:40:38.402Z,16.31
2023-04-25T00:41:28.699Z,16.32
2023-04-25T00:42:18.751Z,16.31
2023-04-25T00:43:08.831Z,16.33
2023-04-25T00:43:58.867Z,16.30
2023-04-25T00:44:48.942Z,16.38
2023-04-25T00:45:39.043Z,16.37
2023-04-25T00:46:29.062Z,16.36
2023-04-25T00:47:19.099Z,16.34
2023-04-25T00:48:09.218Z,16.33
2023-04-25T00:48:59.217Z,16.33
2023-04-25T00:49:49.291Z,16.32
2023-04-25T00:50:39.636Z,16.32
2023-04-25T00:51:29.775Z,16.31
2023-04-25T00:52:19.737Z,16.30
2023-04-25T00:53:09.821Z,16.30
2023-04-25T00:53:59.862Z,16.27
2023-04-25T00:54:49.943Z,16.26
2023-04-25T00:55:40.010Z,16.24
2023-04-25T00:56:30.030Z,16.24
2023-04-25T00:57:20.104Z,16.27
2023-04-25T00:58:10.170Z,16.28
2023-04-25T00:59:00.262Z,16.27
2023-04-25T00:59:50.389Z,16.30
2023-04-25T01:00:40.508Z,16.30
2023-04-25T01:01:30.500Z,16.29
2023-04-25T01:02:20.717Z,16.33
2023-04-25T01:03:10.771Z,16.31
2023-04-25T01:04:00.852Z,16.29
2023-04-25T01:04:50.692Z,16.26
2023-04-25T01:05:40.779Z,16.25
2023-04-25T01:06:31.008Z,16.25
2023-04-25T01:07:21.101Z,16.26
2023-04-25T01:08:11.115Z,16.25
2023-04-25T01:09:01.200Z,16.23
2023-04-25T01:09:51.241Z,16.23
2023-04-25T01:10:41.317Z,16.21
2023-04-25T01:11:31.345Z,16.20
2023-04-25T01:12:21.407Z,16.19
2023-04-25T01:13:11.484Z,16.20
2023-04-25T01:14:01.553Z,16.19
2023-04-25T01:14:51.668Z,16.18
2023-04-25T01:15:41.901Z,16.20
2023-04-25T01:16:31.951Z,16.18
2023-04-25T01:17:22.010Z,16.19
2023-04-25T01:18:12.036Z,16.23
2023-04-25T01:19:02.074Z,16.23
2023-04-25T01:19:52.135Z,16.26
2023-04-25T01:20:42.223Z,16.25
2023-04-25T01:21:32.240Z,16.20
2023-04-25T01:22:22.317Z,16.21
2023-04-25T01:23:12.390Z,16.29
2023-04-25T01:24:02.424Z,16.30
2023-04-25T01:24:52.501Z,16.26
2023-04-25T01:25:42.575Z,16.23
2023-04-25T01:26:32.641Z,16.23
2023-04-25T01:27:22.745Z,16.23
2023-04-25T01:28:12.808Z,16.22
2023-04-25T01:30:55.481Z,16.03
2023-04-25T01:31:30.919Z,16.07
2023-04-25T01:32:20.992Z,16.14
2023-04-25T01:33:10.957Z,16.26
2023-04-25T01:34:01.027Z,16.29
2023-04-25T01:34:51.069Z,16.26
2023-04-25T01:35:41.141Z,16.27
2023-04-25T01:36:31.217Z,16.25
2023-04-25T01:37:21.246Z,16.22
2023-04-25T01:38:11.305Z,16.21
2023-04-25T01:39:01.356Z,16.22
2023-04-25T01:39:51.688Z,16.19
2023-04-25T01:40:41.728Z,16.21
2023-04-25T01:41:31.828Z,16.23
2023-04-25T01:42:22.137Z,16.21
2023-04-25T01:43:12.148Z,16.16
2023-04-25T01:44:02.222Z,16.13
2023-04-25T01:44:52.284Z,16.13
2023-04-25T01:45:42.362Z,16.11
2023-04-25T01:46:32.574Z,16.11
2023-04-25T01:47:22.461Z,16.15
2023-04-25T01:48:12.528Z,16.23
2023-04-25T01:49:02.564Z,16.26
2023-04-25T01:49:52.633Z,16.25
2023-04-25T01:50:42.704Z,16.25
2023-04-25T01:51:33.036Z,16.24
2023-04-25T01:52:23.055Z,16.26
2023-04-25T01:53:13.169Z,16.23
2023-04-25T01:54:03.199Z,16.18
2023-04-25T01:54:53.244Z,16.16
2023-04-25T01:55:43.328Z,16.17
2023-04-25T01:56:33.382Z,16.21
2023-04-25T01:57:23.406Z,16.24
2023-04-25T01:58:13.481Z,16.21
2023-04-25T01:59:03.553Z,16.18
2023-04-25T01:59:53.605Z,16.17
2023-04-25T02:00:43.641Z,16.15
2023-04-25T02:01:33.819Z,16.14
2023-04-25T02:02:24.625Z,16.10
2023-04-25T02:03:13.884Z,16.09
2023-04-25T02:04:04.089Z,16.10
2023-04-25T02:04:53.885Z,16.12
2023-04-25T02:05:43.993Z,16.13
2023-04-25T02:06:34.025Z,16.12
2023-04-25T02:07:24.317Z,16.12
2023-04-25T02:08:14.342Z,16.14
2023-04-25T02:09:04.414Z,16.12
2023-04-25T02:13:10.713Z,15.89
2023-04-25T02:14:00.752Z,16.01
2023-04-25T02:14:50.809Z,16.04
2023-04-25T02:15:40.883Z,16.07
2023-04-25T02:16:30.974Z,16.09
2023-04-25T02:17:20.994Z,16.11
2023-04-25T02:18:11.284Z,16.14
2023-04-25T02:19:01.295Z,16.13
2023-04-25T02:19:51.375Z,16.13
2023-04-25T02:20:41.426Z,16.12
2023-04-25T02:21:31.507Z,16.12
2023-04-25T02:22:21.616Z,16.13
2023-04-25T02:23:11.634Z,16.13
2023-04-25T02:24:01.686Z,16.10
2023-04-25T02:24:51.792Z,16.13
2023-04-25T02:25:41.826Z,16.11
2023-04-25T02:26:31.897Z,16.12
2023-04-25T02:27:22.231Z,16.11
2023-04-25T02:28:12.254Z,16.08
2023-04-25T02:29:02.348Z,16.09
2023-04-25T02:29:52.411Z,16.11
2023-04-25T02:30:42.453Z,16.13
2023-04-25T02:31:32.574Z,16.12
2023-04-25T02:32:22.646Z,16.09
2023-04-25T02:33:12.631Z,16.08
2023-04-25T02:34:02.695Z,16.06
2023-04-25T02:34:52.759Z,16.07
2023-04-25T02:35:42.812Z,16.09
2023-04-25T02:36:33.172Z,16.10
2023-04-25T02:37:23.176Z,16.08
2023-04-25T02:38:13.194Z,16.03
2023-04-25T02:39:03.262Z,16.05
2023-04-25T02:39:53.306Z,16.08
2023-04-25T02:40:43.367Z,16.07
2023-04-25T02:41:33.444Z,16.07
2023-04-25T02:42:23.486Z,16.08
2023-04-25T02:43:13.505Z,16.12
2023-04-25T02:44:03.573Z,16.12
2023-04-25T02:44:53.665Z,16.13
2023-04-25T02:45:43.708Z,16.10
2023-04-25T02:46:39.350Z,16.13
2023-04-25T02:47:30.162Z,16.10
2023-04-25T02:48:13.929Z,16.11
2023-04-25T02:49:03.921Z,16.13
2023-04-25T02:49:53.996Z,16.16
2023-04-25T02:50:44.055Z,16.17
2023-04-25T02:51:34.410Z,16.13
2023-04-25T02:52:24.458Z,16.13
2023-04-25T02:53:14.539Z,16.11
2023-04-25T02:54:04.812Z,16.06
2023-04-25T02:54:54.921Z,16.06
2023-04-25T02:55:44.912Z,16.09
2023-04-25T02:56:34.986Z,16.11
2023-04-25T02:57:25.038Z,16.07
2023-04-25T02:58:15.130Z,16.05
2023-04-25T02:59:05.147Z,16.03
2023-04-25T02:59:55.224Z,16.05
2023-04-25T03:00:45.315Z,16.04
2023-04-25T03:01:35.309Z,16.00
2023-04-25T03:02:25.562Z,16.04
2023-04-25T03:03:15.794Z,16.05
2023-04-25T03:04:05.724Z,16.05
2023-04-25T03:04:55.781Z,16.07
2023-04-25T03:05:45.797Z,16.04
2023-04-25T03:06:35.866Z,16.04
2023-04-25T03:07:25.938Z,16.03
2023-04-25T03:08:16.011Z,16.02
2023-04-25T03:09:06.065Z,16.01
2023-04-25T03:09:56.128Z,16.00
2023-04-25T03:10:46.164Z,15.99
2023-04-25T03:11:36.229Z,15.99
2023-04-25T03:15:47.098Z,15.87
2023-04-25T03:16:38.193Z,15.97
2023-04-25T03:20:39.547Z,15.90
2023-04-25T03:26:51.187Z,15.86
2023-04-25T03:27:46.274Z,15.80
2023-04-25T03:28:04.690Z,15.73
2023-04-25T03:29:20.694Z,15.89
2023-04-25T03:31:21.785Z,15.85
2023-04-25T03:32:19.592Z,15.97
2023-04-25T03:35:08.512Z,15.88
2023-04-25T03:37:37.485Z,15.86
2023-04-25T03:38:01.496Z,15.80
2023-04-25T03:40:30.667Z,15.87
2023-04-25T03:41:26.595Z,15.88
2023-04-25T03:43:48.129Z,15.91
2023-04-25T03:46:21.022Z,15.89
2023-04-25T03:47:06.283Z,15.94
2023-04-25T03:47:56.514Z,15.98
2023-04-25T03:48:46.554Z,16.05
2023-04-25T03:49:36.577Z,16.06
2023-04-25T03:50:26.664Z,16.03
2023-04-25T03:51:16.678Z,16.00
2023-04-25T03:52:06.778Z,16.02
2023-04-25T03:52:56.795Z,16.01
2023-04-25T03:53:46.880Z,16.04
2023-04-25T03:54:36.903Z,15.99
2023-04-25T03:55:26.985Z,15.98
2023-04-25T03:56:17.030Z,15.98
2023-04-25T03:57:07.923Z,15.96
2023-04-25T03:57:57.140Z,15.95
2023-04-25T03:58:47.237Z,15.91
2023-04-25T03:59:37.246Z,15.91
2023-04-25T04:00:27.318Z,15.89
2023-04-25T04:01:17.392Z,15.92
2023-04-25T04:02:07.487Z,15.93
2023-04-25T04:02:57.544Z,15.94
2023-04-25T04:03:47.681Z,15.92
2023-04-25T04:04:37.993Z,15.90
2023-04-25T04:05:27.975Z,15.88
2023-04-25T04:06:17.901Z,15.88
2023-04-25T04:07:07.983Z,15.89
2023-04-25T04:07:58.033Z,15.88
2023-04-25T04:08:48.130Z,15.89
2023-04-25T04:09:38.157Z,15.90
2023-04-25T04:10:28.221Z,15.91
2023-04-25T04:11:18.251Z,15.90
2023-04-25T04:12:08.335Z,15.90
2023-04-25T04:12:58.360Z,15.91
2023-04-25T04:13:48.989Z,15.92
2023-04-25T04:14:38.744Z,15.89
2023-04-25T04:15:28.807Z,15.91
2023-04-25T04:16:19.119Z,15.87
2023-04-25T04:17:09.158Z,15.87
2023-04-25T04:17:59.229Z,15.86
2023-04-25T04:18:49.282Z,15.84
2023-04-25T04:19:39.348Z,15.86
2023-04-25T04:20:29.384Z,15.86
2023-04-25T04:21:19.400Z,15.89
2023-04-25T04:22:09.474Z,15.87
2023-04-25T04:22:59.544Z,15.88
2023-04-25T04:23:49.803Z,15.87
2023-04-25T04:24:39.656Z,15.87
2023-04-25T04:25:29.724Z,15.87
2023-04-25T04:26:19.763Z,15.88
2023-04-25T04:27:09.829Z,15.90
2023-04-25T04:27:59.900Z,15.87
2023-04-25T04:28:49.987Z,15.86
2023-04-25T04:29:40.020Z,15.83
2023-04-25T04:30:30.104Z,15.86
2023-04-25T04:31:20.187Z,15.84
2023-04-25T04:32:10.183Z,15.84
2023-04-25T04:33:00.315Z,15.81
2023-04-25T04:33:50.552Z,15.85
2023-04-25T04:34:40.340Z,15.83
2023-04-25T04:35:30.434Z,15.83
2023-04-25T04:36:20.475Z,15.79
2023-04-25T04:37:10.559Z,15.76
2023-04-25T04:38:00.598Z,15.78
2023-04-25T04:38:50.908Z,15.80
2023-04-25T04:39:40.916Z,15.88
2023-04-25T04:40:30.983Z,15.85
2023-04-25T04:41:21.050Z,15.82
2023-04-25T04:42:11.138Z,15.83
2023-04-25T04:43:01.173Z,15.84
2023-04-25T04:43:51.586Z,15.83
2023-04-25T04:44:41.244Z,15.85
2023-04-25T04:45:31.309Z,15.83
2023-04-25T04:46:21.368Z,15.81
2023-04-25T04:47:11.349Z,15.81
2023-04-25T04:48:01.472Z,15.83
2023-04-25T04:48:51.526Z,15.86
2023-04-25T04:49:41.533Z,15.83
2023-04-25T04:50:31.603Z,15.85
2023-04-25T04:51:21.653Z,15.82
2023-04-25T04:52:11.920Z,15.82
2023-04-25T04:53:01.996Z,15.83
2023-04-25T04:53:52.692Z,15.81
2023-04-25T04:54:42.363Z,15.80
2023-04-25T04:55:32.416Z,15.80
2023-04-25T04:56:22.478Z,15.81
2023-04-25T04:57:12.807Z,15.82
2023-04-25T04:58:02.866Z,15.87
2023-04-25T04:58:52.954Z,15.83
2023-04-25T04:59:43.234Z,15.83
2023-04-25T05:00:33.337Z,15.81
2023-04-25T05:01:23.489Z,15.80
2023-04-25T05:02:13.494Z,15.87
2023-04-25T05:03:03.626Z,15.84
2023-04-25T05:03:53.858Z,15.82
2023-04-25T05:04:43.628Z,15.81
2023-04-25T05:05:33.681Z,15.86
2023-04-25T05:06:23.764Z,15.84
2023-04-25T05:07:13.813Z,15.87
2023-04-25T05:08:03.885Z,15.84
2023-04-25T05:08:54.148Z,15.84
2023-04-25T05:09:44.199Z,15.83
2023-04-25T05:10:34.234Z,15.82
2023-04-25T05:11:24.293Z,15.81
2023-04-25T05:12:14.388Z,15.82
2023-04-25T05:13:04.436Z,15.83
2023-04-25T05:13:54.535Z,15.82
2023-04-25T05:14:44.657Z,15.79
2023-04-25T05:15:34.598Z,15.77
2023-04-25T05:16:24.652Z,15.80
2023-04-25T05:17:14.696Z,15.78
2023-04-25T05:18:05.151Z,15.78
2023-04-25T05:18:55.053Z,15.78
2023-04-25T05:19:45.079Z,15.77
2023-04-25T05:20:35.164Z,15.77
2023-04-25T05:21:25.197Z,15.78
2023-04-25T05:22:15.296Z,15.78
2023-04-25T05:23:05.306Z,15.79
2023-04-25T05:23:55.424Z,15.82
2023-04-25T05:24:45.416Z,15.82
2023-04-25T05:25:35.495Z,15.82
2023-04-25T05:26:25.563Z,15.82
2023-04-25T05:27:15.881Z,15.86
2023-04-25T05:28:05.961Z,15.84
2023-04-25T05:28:56.053Z,15.84
2023-04-25T05:29:46.330Z,15.84
2023-04-25T05:30:36.406Z,15.85
2023-04-25T05:31:26.515Z,15.88
2023-04-25T05:32:16.859Z,15.84
2023-04-25T05:33:06.933Z,15.83
2023-04-25T05:33:56.907Z,15.81
2023-04-25T05:34:46.997Z,15.84
2023-04-25T05:35:37.007Z,15.84
2023-04-25T05:36:27.048Z,15.84
2023-04-25T05:37:17.121Z,15.83
2023-04-25T05:38:07.166Z,15.85
2023-04-25T05:38:57.231Z,15.90
2023-04-25T05:39:47.256Z,15.93
2023-04-25T05:40:37.328Z,15.97
2023-04-25T05:41:27.387Z,16.04
2023-04-25T05:42:17.469Z,16.15
2023-04-25T05:43:07.508Z,16.20
2023-04-25T05:43:58.360Z,16.20
2023-04-25T05:44:47.622Z,16.16
2023-04-25T05:45:37.707Z,16.12
2023-04-25T05:46:27.747Z,16.16
2023-04-25T05:47:17.815Z,16.20
2023-04-25T05:48:07.979Z,16.21
2023-04-25T05:48:57.954Z,16.23
2023-04-25T05:49:48.131Z,16.26
2023-04-25T05:50:38.221Z,16.29
2023-04-25T05:51:28.231Z,16.22
2023-04-25T05:52:18.302Z,16.20
2023-04-25T05:53:08.405Z,16.22
2023-04-25T05:53:58.458Z,16.22
2023-04-25T05:54:48.484Z,16.25
2023-04-25T05:55:38.555Z,16.33
2023-04-25T05:56:28.580Z,16.33
2023-04-25T05:57:18.651Z,16.27
2023-04-25T05:58:08.715Z,16.19
2023-04-25T05:58:58.791Z,16.13
2023-04-25T05:59:48.812Z,16.09
2023-04-25T06:00:38.891Z,16.09
2023-04-25T06:01:28.912Z,16.06
2023-04-25T06:02:19.111Z,16.01
2023-04-25T06:03:09.288Z,16.00
2023-04-25T06:03:59.517Z,15.97
2023-04-25T06:04:49.352Z,15.96
2023-04-25T06:05:39.259Z,15.95
2023-04-25T06:06:29.225Z,15.95
2023-04-25T06:07:19.307Z,15.92
2023-04-25T06:08:09.390Z,15.91
2023-04-25T06:08:59.491Z,15.92
2023-04-25T06:09:49.499Z,15.94
2023-04-25T06:10:39.607Z,15.91
2023-04-25T06:11:29.634Z,15.91
2023-04-25T06:12:19.976Z,15.91
2023-04-25T06:13:10.030Z,15.93
2023-04-25T06:14:00.141Z,15.95
2023-04-25T06:14:50.429Z,15.98
2023-04-25T06:15:40.557Z,15.98
2023-04-25T06:16:30.599Z,15.96
2023-04-25T06:17:20.628Z,15.93
2023-04-25T06:18:10.633Z,15.93
2023-04-25T06:19:00.729Z,15.94
2023-04-25T06:19:50.760Z,15.96
2023-04-25T06:20:40.836Z,15.96
2023-04-25T06:21:30.868Z,15.95
2023-04-25T06:22:20.921Z,15.94
2023-04-25T06:23:10.996Z,15.96
2023-04-25T06:24:01.335Z,15.94
2023-04-25T06:24:51.347Z,15.95
2023-04-25T06:25:41.411Z,15.95
2023-04-25T06:26:31.466Z,15.97
2023-04-25T06:27:21.564Z,15.94
2023-04-25T06:28:11.578Z,15.94
2023-04-25T06:29:01.675Z,15.94
2023-04-25T06:29:51.688Z,15.94
2023-04-25T06:30:41.764Z,15.90
2023-04-25T06:31:31.894Z,15.85
2023-04-25T06:32:21.931Z,15.84
2023-04-25T06:33:12.210Z,15.86
2023-04-25T06:34:02.292Z,15.90
2023-04-25T06:34:52.315Z,15.90
2023-04-25T06:35:42.643Z,15.90
2023-04-25T06:36:32.716Z,15.89
2023-04-25T06:37:22.768Z,15.84
2023-04-25T06:38:12.795Z,15.88
2023-04-25T06:39:02.909Z,15.86
2023-04-25T06:39:52.908Z,15.87
2023-04-25T06:40:42.976Z,15.84
2023-04-25T06:41:32.982Z,15.88
2023-04-25T06:42:23.056Z,15.87
2023-04-25T06:43:13.117Z,15.88
2023-04-25T06:44:03.205Z,15.85
2023-04-25T06:44:53.494Z,15.86
2023-04-25T06:45:44.441Z,15.87
2023-04-25T06:46:33.833Z,15.84
2023-04-25T06:47:23.896Z,15.87
2023-04-25T06:48:13.911Z,15.86
2023-04-25T06:49:04.251Z,15.84
2023-04-25T06:49:54.303Z,15.83
2023-04-25T06:50:44.328Z,15.83
2023-04-25T06:51:34.347Z,15.83
2023-04-25T06:52:24.425Z,15.86
2023-04-25T06:53:14.452Z,15.91
2023-04-25T06:54:04.555Z,15.89
2023-04-25T06:54:54.615Z,15.88
2023-04-25T06:55:44.666Z,15.89
2023-04-25T06:56:34.712Z,15.90
2023-04-25T06:57:24.753Z,15.88
2023-04-25T06:58:14.794Z,15.87
2023-04-25T06:59:04.900Z,15.87
2023-04-25T06:59:54.909Z,15.84
2023-04-25T07:00:45.011Z,15.84
2023-04-25T07:01:35.048Z,15.86
2023-04-25T07:02:25.259Z,15.87
2023-04-25T07:03:15.341Z,15.86
2023-04-25T07:04:05.419Z,15.87
2023-04-25T07:04:55.640Z,15.90
2023-04-25T07:05:45.628Z,15.82
2023-04-25T07:06:35.628Z,15.80
2023-04-25T07:07:25.679Z,15.80
2023-04-25T07:08:15.716Z,15.77
2023-04-25T07:09:05.800Z,15.76
2023-04-25T07:09:55.824Z,15.77
2023-04-25T07:10:47.765Z,15.78
2023-04-25T07:11:35.906Z,15.84
2023-04-25T07:12:26.000Z,15.86
2023-04-25T07:13:16.027Z,15.85
2023-04-25T07:14:06.128Z,15.87
2023-04-25T07:14:56.316Z,15.87
2023-04-25T07:15:46.400Z,15.88
2023-04-25T07:16:36.477Z,15.87
2023-04-25T07:17:26.487Z,15.87
2023-04-25T07:18:16.543Z,15.82
2023-04-25T07:19:06.648Z,15.80
2023-04-25T07:19:56.679Z,15.79
2023-04-25T07:20:46.760Z,15.81
2023-04-25T07:21:36.802Z,15.84
2023-04-25T07:22:26.967Z,15.86
2023-04-25T07:23:16.903Z,15.87
2023-04-25T07:24:06.962Z,15.89
2023-04-25T07:24:56.996Z,15.92
2023-04-25T07:25:47.038Z,15.94
2023-04-25T07:26:37.080Z,15.94
2023-04-25T07:27:27.202Z,15.92
2023-04-25T07:28:19.370Z,15.97
2023-04-25T07:29:07.322Z,15.88
2023-04-25T07:29:57.355Z,15.88
2023-04-25T07:30:47.382Z,15.93
2023-04-25T07:31:37.500Z,15.89
2023-04-25T07:32:27.546Z,15.86
2023-04-25T07:33:17.562Z,15.88
2023-04-25T07:34:07.655Z,15.91
2023-04-25T07:34:57.659Z,15.89
2023-04-25T07:35:47.752Z,15.89
2023-04-25T07:36:37.822Z,15.89
2023-04-25T07:37:28.132Z,15.89
2023-04-25T07:38:18.176Z,15.90
2023-04-25T07:39:08.254Z,15.89
2023-04-25T07:39:58.307Z,15.89
2023-04-25T07:40:48.363Z,15.89
2023-04-25T07:41:38.414Z,15.96
2023-04-25T07:42:28.474Z,15.92
2023-04-25T07:43:18.479Z,15.93
2023-04-25T07:44:08.574Z,16.02
2023-04-25T07:44:58.614Z,16.16
2023-04-25T07:45:48.702Z,16.16
2023-04-25T07:46:38.719Z,16.20
2023-04-25T07:47:28.827Z,16.22
2023-04-25T07:48:18.828Z,16.19
2023-04-25T07:49:08.899Z,16.21
2023-04-25T07:49:58.943Z,16.19
2023-04-25T07:50:48.984Z,16.16
2023-04-25T07:51:39.053Z,16.12
2023-04-25T07:52:29.121Z,16.13
2023-04-25T07:53:19.750Z,16.25
2023-04-25T07:54:09.531Z,16.25
2023-04-25T07:54:59.580Z,16.20
2023-04-25T07:55:49.622Z,16.22
2023-04-25T07:56:49.546Z,16.21
2023-04-25T07:57:30.757Z,16.23
2023-04-25T07:58:19.780Z,16.26
2023-04-25T07:59:09.858Z,16.29
2023-04-25T07:59:59.895Z,16.26
2023-04-25T08:00:49.934Z,16.30
2023-04-25T08:01:39.988Z,16.35
2023-04-25T08:02:30.096Z,16.34
2023-04-25T08:03:20.435Z,16.33
2023-04-25T08:04:10.481Z,16.29
2023-04-25T08:05:00.596Z,16.24
2023-04-25T08:05:50.683Z,16.24
2023-04-25T08:06:40.566Z,16.25
2023-04-25T08:07:30.575Z,16.24
2023-04-25T08:08:20.654Z,16.19
2023-04-25T08:09:10.728Z,16.18
2023-04-25T08:10:00.756Z,16.22
2023-04-25T08:10:50.766Z,16.25
2023-04-25T08:11:40.851Z,16.29
2023-04-25T08:12:30.887Z,16.26
2023-04-25T08:13:20.948Z,16.24
2023-04-25T08:14:10.970Z,16.22
2023-04-25T08:15:00.999Z,16.28
2023-04-25T08:15:51.084Z,16.25
2023-04-25T08:16:41.147Z,16.23
2023-04-25T08:17:31.194Z,16.21
2023-04-25T08:18:21.294Z,16.26
2023-04-25T08:19:11.270Z,16.33
2023-04-25T08:20:01.314Z,16.29
2023-04-25T08:20:51.384Z,16.27
2023-04-25T08:21:41.469Z,16.33
2023-04-25T08:22:31.526Z,16.31
2023-04-25T08:23:21.570Z,16.22
2023-04-25T08:24:11.626Z,16.14
2023-04-25T08:25:01.668Z,16.14
2023-04-25T08:25:51.689Z,16.13
2023-04-25T08:26:41.734Z,16.18
2023-04-25T08:27:31.808Z,16.16
2023-04-25T08:28:21.851Z,16.15
2023-04-25T08:29:11.926Z,16.17
2023-04-25T08:30:01.917Z,16.27
2023-04-25T08:30:51.986Z,16.26
2023-04-25T08:31:42.104Z,16.14
2023-04-25T08:32:32.123Z,16.12
2023-04-25T08:33:22.208Z,16.14
2023-04-25T08:34:12.190Z,16.13
2023-04-25T08:35:02.221Z,16.09
2023-04-25T08:35:52.294Z,16.15
2023-04-25T08:36:42.597Z,16.22
2023-04-25T08:37:32.631Z,16.22
2023-04-25T08:38:22.706Z,16.20
2023-04-25T08:39:12.755Z,16.21
2023-04-25T08:40:02.789Z,16.17
2023-04-25T08:40:52.853Z,16.16
2023-04-25T08:41:42.915Z,16.16
2023-04-25T08:42:32.984Z,16.13
2023-04-25T08:43:23.057Z,16.17
2023-04-25T08:44:13.134Z,16.16
2023-04-25T08:45:05.442Z,16.14
2023-04-25T08:45:53.184Z,16.09
2023-04-25T08:46:43.271Z,16.08
2023-04-25T08:47:33.354Z,16.09
2023-04-25T08:48:23.397Z,16.07
2023-04-25T08:49:13.442Z,16.05
2023-04-25T08:50:03.470Z,16.11
2023-04-25T08:50:53.541Z,16.07
2023-04-25T08:51:43.614Z,16.07
2023-04-25T08:52:33.679Z,16.11
2023-04-25T08:53:23.983Z,16.19
2023-04-25T08:54:27.278Z,16.17
2023-04-25T08:55:05.089Z,16.08
2023-04-25T08:55:54.106Z,16.00
2023-04-25T08:56:44.165Z,16.03
2023-04-25T08:57:34.240Z,16.02
2023-04-25T08:58:24.315Z,16.06
2023-04-25T08:59:14.387Z,16.07
2023-04-25T09:00:04.432Z,16.22
2023-04-25T09:00:54.610Z,16.27
2023-04-25T09:01:44.674Z,16.22
2023-04-25T09:02:34.871Z,16.15
2023-04-25T09:03:25.332Z,16.11
2023-04-25T09:04:15.493Z,16.15
2023-04-25T09:05:05.142Z,16.14
2023-04-25T09:05:55.223Z,16.15
2023-04-25T09:06:45.246Z,16.19
2023-04-25T09:07:35.365Z,16.26
2023-04-25T09:08:25.365Z,16.26
2023-04-25T09:09:15.456Z,16.24
2023-04-25T09:10:05.522Z,16.22
2023-04-25T09:10:55.528Z,16.24
2023-04-25T09:11:45.610Z,16.29
2023-04-25T09:12:35.946Z,16.28
2023-04-25T09:13:25.966Z,16.30
2023-04-25T09:14:16.068Z,16.28
2023-04-25T09:15:06.081Z,16.28
2023-04-25T09:15:56.210Z,16.25
2023-04-25T09:16:46.212Z,16.22
2023-04-25T09:17:36.497Z,16.25
2023-04-25T09:18:29.856Z,16.30
2023-04-25T09:19:16.390Z,16.25
2023-04-25T09:20:06.413Z,16.22
2023-04-25T09:21:01.861Z,16.21
2023-04-25T09:21:48.484Z,16.16
2023-04-25T09:22:36.626Z,16.17
2023-04-25T09:23:26.632Z,16.16
2023-04-25T09:24:16.722Z,16.18
2023-04-25T09:25:06.752Z,16.16
2023-04-25T09:25:56.835Z,16.12
2023-04-25T09:26:46.906Z,16.05
2023-04-25T09:27:36.941Z,16.03
2023-04-25T09:28:28.447Z,16.08
2023-04-25T09:29:17.057Z,16.15
2023-04-25T09:30:07.088Z,16.15
2023-04-25T09:30:57.194Z,16.17
2023-04-25T09:31:47.200Z,16.16
2023-04-25T09:32:37.274Z,16.20
2023-04-25T09:33:27.289Z,16.19
2023-04-25T09:34:17.407Z,16.14
2023-04-25T09:35:07.427Z,16.12
2023-04-25T09:35:57.515Z,16.15
2023-04-25T09:36:47.566Z,16.26
2023-04-25T09:37:37.565Z,16.29
2023-04-25T09:38:27.619Z,16.28
2023-04-25T09:39:17.654Z,16.28
2023-04-25T09:40:07.679Z,16.28
2023-04-25T09:40:57.757Z,16.26
2023-04-25T09:41:47.824Z,16.25
2023-04-25T09:42:37.865Z,16.27
2023-04-25T09:43:27.932Z,16.26
2023-04-25T09:44:18.028Z,16.30
2023-04-25T09:45:08.239Z,16.30
2023-04-25T09:45:58.888Z,16.31
2023-04-25T09:46:48.145Z,16.31
2023-04-25T09:47:38.358Z,16.33
2023-04-25T09:48:28.277Z,16.37
2023-04-25T09:49:18.379Z,16.46
2023-04-25T09:50:08.391Z,16.46
2023-04-25T09:50:58.477Z,16.47
2023-04-25T09:51:48.508Z,16.47
2023-04-25T09:52:38.586Z,16.52
2023-04-25T09:53:28.626Z,16.52
2023-04-25T09:54:18.727Z,16.54
2023-04-25T09:55:09.012Z,16.54
2023-04-25T09:55:59.092Z,16.54
2023-04-25T09:56:49.119Z,16.54
2023-04-25T09:57:39.166Z,16.54
2023-04-25T09:58:30.691Z,16.58
2023-04-25T09:59:19.303Z,16.60
2023-04-25T10:00:09.345Z,16.60
2023-04-25T10:00:59.396Z,16.60
2023-04-25T10:01:49.528Z,16.60
2023-04-25T10:02:39.658Z,16.63
2023-04-25T10:03:29.676Z,16.64
2023-04-25T10:04:19.714Z,16.62
2023-04-25T10:05:09.790Z,16.62
2023-04-25T10:05:59.728Z,16.64
2023-04-25T10:06:49.790Z,16.57
2023-04-25T10:07:39.840Z,16.54
2023-04-25T10:08:29.906Z,16.47
2023-04-25T10:09:20.068Z,16.47
2023-04-25T10:10:10.094Z,16.44
2023-04-25T10:11:00.163Z,16.42
2023-04-25T10:11:50.489Z,16.38
2023-04-25T10:12:40.568Z,16.35
2023-04-25T10:13:30.597Z,16.32
2023-04-25T10:14:20.688Z,16.36
2023-04-25T10:15:10.724Z,16.40
2023-04-25T10:16:00.774Z,16.43
2023-04-25T10:16:50.798Z,16.44
2023-04-25T10:17:40.885Z,16.41
2023-04-25T10:18:30.928Z,16.46
2023-04-25T10:19:21.041Z,16.45
2023-04-25T10:20:11.048Z,16.43
2023-04-25T10:21:01.389Z,16.47
2023-04-25T10:21:51.452Z,16.43
2023-04-25T10:22:41.526Z,16.41
2023-04-25T10:23:31.573Z,16.43
2023-04-25T10:24:21.618Z,16.40
2023-04-25T10:25:11.659Z,16.35
2023-04-25T10:26:01.697Z,16.35
2023-04-25T10:26:51.722Z,16.37
2023-04-25T10:27:41.804Z,16.42
2023-04-25T10:28:31.833Z,16.43
2023-04-25T10:29:21.924Z,16.44
2023-04-25T10:30:11.953Z,16.33
2023-04-25T10:31:02.144Z,16.25
2023-04-25T10:31:52.100Z,16.22
2023-04-25T10:32:42.161Z,16.17
2023-04-25T10:33:32.171Z,16.26
2023-04-25T10:34:22.246Z,16.36
2023-04-25T10:35:12.348Z,16.44
2023-04-25T10:36:02.346Z,16.44
2023-04-25T10:36:52.414Z,16.49
2023-04-25T10:37:42.490Z,16.46
2023-04-25T10:38:32.517Z,16.46
2023-04-25T10:39:22.665Z,16.43
2023-04-25T10:40:12.650Z,16.47
2023-04-25T10:41:02.716Z,16.44
2023-04-25T10:41:52.745Z,16.43
2023-04-25T10:42:42.827Z,16.44
2023-04-25T10:43:33.116Z,16.42
2023-04-25T10:44:23.211Z,16.41
2023-04-25T10:45:13.247Z,16.42
2023-04-25T10:46:03.563Z,16.38
2023-04-25T10:46:53.637Z,16.37
2023-04-25T10:47:43.713Z,16.43
2023-04-25T10:48:33.706Z,16.47
2023-04-25T10:49:23.822Z,16.47
2023-04-25T10:50:13.840Z,16.47
2023-04-25T10:51:03.944Z,16.50
2023-04-25T10:51:55.653Z,16.51
2023-04-25T10:52:44.030Z,16.45
2023-04-25T10:53:34.085Z,16.39
2023-04-25T10:54:24.182Z,16.32
2023-04-25T10:55:14.217Z,16.32
2023-04-25T10:56:04.255Z,16.30
2023-04-25T10:56:54.354Z,16.39
2023-04-25T10:57:44.378Z,16.41
2023-04-25T10:58:34.402Z,16.46
2023-04-25T10:59:24.469Z,16.41
2023-04-25T11:00:14.613Z,16.38
2023-04-25T11:01:04.586Z,16.36
2023-04-25T11:01:54.729Z,16.34
2023-04-25T11:02:44.795Z,16.35
2023-04-25T11:03:34.867Z,16.31
2023-04-25T11:04:25.167Z,16.31
2023-04-25T11:05:14.898Z,16.31
2023-04-25T11:06:04.961Z,16.30
2023-04-25T11:06:58.240Z,16.30
2023-04-25T11:07:52.901Z,16.28
2023-04-25T11:08:36.176Z,16.28
2023-04-25T11:09:25.237Z,16.26
2023-04-25T11:10:15.253Z,16.23
2023-04-25T11:11:05.326Z,16.28